createdAt,value
2019-04-20T00:00:49.173Z,21.23
2019-04-20T00:03:15.896Z,20.40
2019-04-20T00:05:46.163Z,18.37
2019-04-20T00:08:21.472Z,20.40
2019-04-20T00:10:58.296Z,18.98
2019-04-20T00:13:32.311Z,18.35
2019-04-20T00:15:51.360Z,21.02
2019-04-20T00:18:28.076Z,16.82
2019-04-20T00:21:00.404Z,22.02
2019-04-20T00:26:33.336Z,20.45
2019-04-20T00:29:07.524Z,18.52
2019-04-20T00:31:36.740Z,18.65
2019-04-20T00:34:05.286Z,17.32
2019-04-20T00:36:27.142Z,19.02
2019-04-20T00:39:01.324Z,17.90
2019-04-20T00:41:29.721Z,20.05
2019-04-20T00:44:06.936Z,18.77
2019-04-20T00:46:39.790Z,17.70
2019-04-20T00:49:20.765Z,16.52
2019-04-20T00:51:51.561Z,17.80
2019-04-20T00:54:07.344Z,22.40
2019-04-20T00:56:39.178Z,18.07
2019-04-20T00:59:26.030Z,19.10
2019-04-20T01:02:00.591Z,16.50
2019-04-20T01:04:33.566Z,17.70
2019-04-20T01:07:13.682Z,17.25
2019-04-20T01:09:51.991Z,19.12
2019-04-20T01:12:26.257Z,16.30
2019-04-20T01:15:00.315Z,18.23
2019-04-20T01:17:25.453Z,15.63
2019-04-20T01:19:55.433Z,16.77
2019-04-20T01:22:28.587Z,16.20
2019-04-20T01:25:08.717Z,17.67
2019-04-20T01:27:42.094Z,17.85
2019-04-20T01:30:14.752Z,16.52
2019-04-20T01:35:26.115Z,18.52
2019-04-20T01:37:57.426Z,26.73
2019-04-20T01:40:11.689Z,17.00
2019-04-20T01:42:42.853Z,18.30
2019-04-20T01:45:21.728Z,19.67
2019-04-20T01:47:50.828Z,18.10
2019-04-20T01:50:23.032Z,19.52
2019-04-20T01:53:04.180Z,21.15
2019-04-20T01:55:56.129Z,22.22
2019-04-20T01:58:30.224Z,19.73
2019-04-20T02:03:38.603Z,19.07
2019-04-20T02:06:09.930Z,20.00
2019-04-20T02:11:08.124Z,17.67
2019-04-20T02:13:46.720Z,19.55
2019-04-20T02:16:22.968Z,17.15
2019-04-20T02:19:08.031Z,18.40
2019-04-20T02:21:34.233Z,20.23
2019-04-20T02:23:54.722Z,19.20
2019-04-20T02:26:20.029Z,16.15
2019-04-20T02:34:33.960Z,14.68
2019-04-20T02:42:08.811Z,11.10
2019-04-20T02:44:42.576Z,20.00
2019-04-20T02:47:14.046Z,11.70
2019-04-20T02:49:47.460Z,11.65
2019-04-20T02:52:12.836Z,11.55
2019-04-20T02:54:48.711Z,12.37
2019-04-20T02:57:26.185Z,16.45
2019-04-20T03:00:03.172Z,21.52
2019-04-20T03:02:06.360Z,12.25
2019-04-20T03:04:32.658Z,15.75
2019-04-20T03:07:07.960Z,13.88
2019-04-20T03:09:48.472Z,9.80
2019-04-20T03:12:23.818Z,13.13
2019-04-20T03:14:42.325Z,14.50
2019-04-20T03:17:22.618Z,14.38
2019-04-20T03:19:46.402Z,13.10
2019-04-20T03:22:35.307Z,16.37
2019-04-20T03:25:03.836Z,12.47
2019-04-20T03:27:24.790Z,11.63
2019-04-20T03:30:03.728Z,12.85
2019-04-20T03:37:44.261Z,10.80
2019-04-20T03:40:10.300Z,14.75
2019-04-20T03:42:24.480Z,13.40
2019-04-20T03:45:01.810Z,16.02
2019-04-20T03:47:35.941Z,13.05
2019-04-20T03:50:28.373Z,9.80
2019-04-20T03:52:56.274Z,10.45
2019-04-20T03:55:44.508Z,11.78
2019-04-20T03:58:19.692Z,11.35
2019-04-20T04:03:56.058Z,9.15
2019-04-20T04:06:17.910Z,9.45
2019-04-20T04:08:56.021Z,9.98
2019-04-20T04:11:31.488Z,10.40
2019-04-20T04:13:45.903Z,9.55
2019-04-20T04:16:18.837Z,12.43
2019-04-20T04:18:58.428Z,11.40
2019-04-20T04:21:35.531Z,9.93
2019-04-20T04:24:05.599Z,16.15
2019-04-20T04:26:39.007Z,11.05
2019-04-20T04:29:19.161Z,12.25
2019-04-20T04:31:57.740Z,8.35
2019-04-20T04:34:20.948Z,10.88
2019-04-20T04:36:52.409Z,8.83
2019-04-20T04:39:27.750Z,12.20
2019-04-20T04:42:01.220Z,12.23
2019-04-20T04:44:19.316Z,12.73
2019-04-20T04:46:42.411Z,12.78
2019-04-20T04:49:18.323Z,9.75
2019-04-20T04:51:50.200Z,8.88
2019-04-20T04:54:21.976Z,11.63
2019-04-20T04:56:44.320Z,10.38
2019-04-20T04:59:14.934Z,8.85
2019-04-20T05:01:46.994Z,11.70
2019-04-20T05:04:40.121Z,11.28
2019-04-20T05:07:02.530Z,9.43
2019-04-20T05:09:23.666Z,10.40
2019-04-20T05:11:59.764Z,14.55
2019-04-20T05:14:38.758Z,12.68
2019-04-20T05:17:11.394Z,12.18
2019-04-20T05:19:47.870Z,10.13
2019-04-20T05:22:19.458Z,11.73
2019-04-20T05:25:01.148Z,10.43
2019-04-20T05:27:30.147Z,11.43
2019-04-20T05:29:42.927Z,9.10
2019-04-20T05:32:16.980Z,10.88
2019-04-20T05:37:43.199Z,11.05
2019-04-20T05:40:10.666Z,12.63
2019-04-20T05:42:44.229Z,13.58
2019-04-20T05:47:43.138Z,9.45
2019-04-20T05:50:08.294Z,13.60
2019-04-20T05:53:07.494Z,10.10
2019-04-20T05:55:20.858Z,15.03
2019-04-20T05:57:50.460Z,13.50
2019-04-20T06:00:27.856Z,12.13
2019-04-20T06:02:54.013Z,17.87
2019-04-20T06:05:29.061Z,11.53
2019-04-20T06:07:59.120Z,7.83
2019-04-20T06:10:32.040Z,10.08
2019-04-20T06:13:00.558Z,11.40
2019-04-20T06:15:54.181Z,14.55
2019-04-20T06:18:42.513Z,6.10
2019-04-20T06:21:32.544Z,10.00
2019-04-20T06:23:59.329Z,9.70
2019-04-20T06:28:50.837Z,10.32
2019-04-20T06:31:35.528Z,6.22
2019-04-20T06:34:33.399Z,7.90
2019-04-20T06:37:08.483Z,7.12
2019-04-20T06:42:11.153Z,10.48
2019-04-20T06:44:35.418Z,7.85
2019-04-20T06:49:38.105Z,10.20
2019-04-20T06:52:23.687Z,10.45
2019-04-20T06:57:18.407Z,7.55
2019-04-20T06:59:52.315Z,7.10
2019-04-20T07:02:32.447Z,7.62
2019-04-20T07:04:58.003Z,10.50
2019-04-20T07:07:24.059Z,8.23
2019-04-20T07:12:31.357Z,9.98
2019-04-20T07:14:50.988Z,11.30
2019-04-20T07:20:04.311Z,16.02
2019-04-20T07:25:18.734Z,12.93
2019-04-20T07:27:49.096Z,11.85
2019-04-20T07:30:17.533Z,13.62
2019-04-20T07:33:08.719Z,12.95
2019-04-20T07:35:25.652Z,13.88
2019-04-20T07:38:15.484Z,17.67
2019-04-20T07:40:35.479Z,16.15
2019-04-20T07:43:04.633Z,17.87
2019-04-20T07:45:45.521Z,15.35
2019-04-20T07:50:37.583Z,16.07
2019-04-20T07:53:12.297Z,16.40
2019-04-20T07:58:11.125Z,18.17
2019-04-20T08:01:05.698Z,15.25
2019-04-20T08:05:53.418Z,16.05
2019-04-20T08:10:59.595Z,15.48
2019-04-20T08:13:39.109Z,12.93
2019-04-20T08:16:06.692Z,15.23
2019-04-20T08:18:41.254Z,12.28
2019-04-20T08:21:08.219Z,12.03
2019-04-20T08:23:47.340Z,9.85
2019-04-20T08:26:01.725Z,9.03
2019-04-20T08:28:38.465Z,11.05
2019-04-20T08:31:17.801Z,10.78
2019-04-20T08:34:07.426Z,13.13
2019-04-20T08:41:28.614Z,10.03
2019-04-20T08:44:09.620Z,10.80
2019-04-20T08:46:41.738Z,10.08
2019-04-20T08:49:08.375Z,11.20
2019-04-20T08:51:41.943Z,8.53
2019-04-20T08:54:08.619Z,9.95
2019-04-20T08:56:31.872Z,11.33
2019-04-20T08:58:52.894Z,10.90
2019-04-20T09:01:28.229Z,12.75
2019-04-20T09:04:02.104Z,8.45
2019-04-20T09:06:40.016Z,9.48
2019-04-20T09:09:22.496Z,11.08
2019-04-20T09:11:49.644Z,14.25
2019-04-20T09:14:21.416Z,11.22
2019-04-20T09:16:59.807Z,10.35
2019-04-20T09:19:36.697Z,12.40
2019-04-20T09:25:24.971Z,10.43
2019-04-20T09:27:29.512Z,10.32
2019-04-20T09:30:09.189Z,12.88
2019-04-20T09:32:50.457Z,11.15
2019-04-20T09:35:34.108Z,11.85
2019-04-20T09:38:01.706Z,13.32
2019-04-20T09:40:35.267Z,9.98
2019-04-20T09:42:56.653Z,10.35
2019-04-20T09:45:37.077Z,12.20
2019-04-20T09:50:49.912Z,10.98
2019-04-20T09:53:21.266Z,10.88
2019-04-20T09:55:53.444Z,12.13
2019-04-20T09:58:18.989Z,13.13
2019-04-20T10:00:59.501Z,13.35
2019-04-20T10:03:14.540Z,10.23
2019-04-20T10:05:45.402Z,10.25
2019-04-20T10:08:15.606Z,10.55
2019-04-20T10:10:47.235Z,11.73
2019-04-20T10:13:17.479Z,9.78
2019-04-20T10:15:47.815Z,9.53
2019-04-20T10:18:19.770Z,9.03
2019-04-20T10:20:49.897Z,8.48
2019-04-20T10:23:20.749Z,9.13
2019-04-20T10:25:50.964Z,11.33
2019-04-20T10:28:21.514Z,8.48
2019-04-20T10:30:52.711Z,10.20
2019-04-20T10:33:25.699Z,12.73
2019-04-20T10:35:57.423Z,8.10
2019-04-20T10:38:33.950Z,9.95
2019-04-20T10:41:12.668Z,7.42
2019-04-20T10:43:35.064Z,8.50
2019-04-20T10:46:06.805Z,8.43
2019-04-20T10:48:41.744Z,6.35
2019-04-20T10:51:08.679Z,7.45
2019-04-20T10:53:38.699Z,10.63
2019-04-20T10:56:09.632Z,12.10
2019-04-20T10:58:40.077Z,4.87
2019-04-20T11:01:11.593Z,5.53
2019-04-20T11:03:42.741Z,9.83
2019-04-20T11:06:14.398Z,6.25
2019-04-20T11:08:44.640Z,6.17
2019-04-20T11:11:23.149Z,5.55
2019-04-20T11:13:47.585Z,6.67
2019-04-20T11:16:18.130Z,5.55
2019-04-20T11:18:49.336Z,5.70
2019-04-20T11:21:19.609Z,6.10
2019-04-20T11:23:50.021Z,8.23
2019-04-20T11:26:20.309Z,8.55
2019-04-20T11:28:50.403Z,6.95
2019-04-20T11:31:21.888Z,7.90
2019-04-20T11:33:52.312Z,5.95
2019-04-20T11:36:23.251Z,5.42
2019-04-20T11:38:54.446Z,5.95
2019-04-20T11:41:27.696Z,5.72
2019-04-20T11:43:57.606Z,6.50
2019-04-20T11:46:27.846Z,4.95
2019-04-20T11:48:57.857Z,3.52
2019-04-20T11:51:27.835Z,3.70
2019-04-20T11:53:58.546Z,3.37
2019-04-20T11:56:33.385Z,6.92
2019-04-20T11:59:00.953Z,5.08
2019-04-20T12:01:58.460Z,2.85
2019-04-20T12:04:38.148Z,3.22
2019-04-20T12:07:00.995Z,4.87
2019-04-20T12:09:31.668Z,6.50
2019-04-20T12:12:12.248Z,4.22
2019-04-20T12:14:34.558Z,2.80
2019-04-20T12:17:05.777Z,3.55
2019-04-20T12:19:36.261Z,3.15
2019-04-20T12:22:07.812Z,4.10
2019-04-20T12:24:38.194Z,2.83
2019-04-20T12:27:08.863Z,4.55
2019-04-20T12:29:40.556Z,4.00
2019-04-20T12:32:10.779Z,3.15
2019-04-20T12:34:41.256Z,4.40
2019-04-20T12:37:13.323Z,6.30
2019-04-20T12:39:44.881Z,3.27
2019-04-20T12:42:17.021Z,3.98
2019-04-20T12:44:48.000Z,4.27
2019-04-20T12:47:19.538Z,3.77
2019-04-20T12:49:49.746Z,3.05
2019-04-20T12:52:20.711Z,4.90
2019-04-20T12:54:50.868Z,3.72
2019-04-20T12:57:20.901Z,4.78
2019-04-20T12:59:52.337Z,5.37
2019-04-20T13:02:23.152Z,4.42
2019-04-20T13:04:53.474Z,3.80
2019-04-20T13:07:24.800Z,3.33
2019-04-20T13:09:54.884Z,3.67
2019-04-20T13:12:44.558Z,3.83
2019-04-20T13:15:38.209Z,4.67
2019-04-20T13:20:39.738Z,4.17
2019-04-20T13:23:10.982Z,8.23
2019-04-20T13:25:41.273Z,3.77
2019-04-20T13:28:12.736Z,4.33
2019-04-20T13:30:43.895Z,5.90
2019-04-20T13:33:14.198Z,10.15
2019-04-20T13:35:44.450Z,4.85
2019-04-20T13:38:14.518Z,4.85
2019-04-20T13:40:45.864Z,3.80
2019-04-20T13:43:17.507Z,3.20
2019-04-20T13:45:48.879Z,4.75
2019-04-20T13:48:19.308Z,5.60
2019-04-20T13:50:49.725Z,4.12
2019-04-20T13:53:19.985Z,7.70
2019-04-20T13:55:51.951Z,8.08
2019-04-20T13:58:39.931Z,4.35
2019-04-20T14:01:14.829Z,6.05
2019-04-20T14:03:44.981Z,4.75
2019-04-20T14:06:16.348Z,4.85
2019-04-20T14:08:47.363Z,7.67
2019-04-20T14:11:17.770Z,3.42
2019-04-20T14:13:54.610Z,4.58
2019-04-20T14:16:19.493Z,4.33
2019-04-20T14:18:51.112Z,3.98
2019-04-20T14:21:21.221Z,8.63
2019-04-20T14:23:53.029Z,7.10
2019-04-20T14:26:23.125Z,5.12
2019-04-20T14:28:54.841Z,8.55
2019-04-20T14:31:25.876Z,8.10
2019-04-20T14:33:57.217Z,10.00
2019-04-20T14:36:28.708Z,4.35
2019-04-20T14:39:00.328Z,7.97
2019-04-20T14:41:32.085Z,11.75
2019-04-20T14:44:03.614Z,5.10
2019-04-20T14:46:33.828Z,4.37
2019-04-20T14:49:04.930Z,3.37
2019-04-20T14:51:37.389Z,4.90
2019-04-20T14:54:07.561Z,4.35
2019-04-20T14:56:37.768Z,6.15
2019-04-20T14:59:09.670Z,3.65
2019-04-20T15:01:42.686Z,4.25
2019-04-20T15:04:17.776Z,4.78
2019-04-20T15:06:44.537Z,5.45
2019-04-20T15:09:14.845Z,15.78
2019-04-20T15:11:46.482Z,5.28
2019-04-20T15:14:16.821Z,5.95
2019-04-20T15:16:46.832Z,5.28
2019-04-20T15:19:18.509Z,6.80
2019-04-20T15:21:53.525Z,6.45
2019-04-20T15:24:23.829Z,3.80
2019-04-20T15:26:54.242Z,3.00
2019-04-20T15:29:24.369Z,8.50
2019-04-20T15:31:56.503Z,2.95
2019-04-20T15:34:26.813Z,4.00
2019-04-20T15:36:57.973Z,6.97
2019-04-20T15:39:29.203Z,3.65
2019-04-20T15:42:01.180Z,6.30
2019-04-20T15:44:33.430Z,6.10
2019-04-20T15:47:03.749Z,2.60
2019-04-20T15:49:35.872Z,3.72
2019-04-20T15:52:06.070Z,5.12
2019-04-20T15:54:36.121Z,4.35
2019-04-20T15:57:12.740Z,3.27
2019-04-20T15:59:38.236Z,4.47
2019-04-20T16:02:29.370Z,2.62
2019-04-20T16:05:18.598Z,4.00
2019-04-20T16:07:55.077Z,5.70
2019-04-20T16:10:21.275Z,2.90
2019-04-20T16:13:04.848Z,3.33
2019-04-20T16:15:25.425Z,2.62
2019-04-20T16:17:56.824Z,3.25
2019-04-20T16:20:28.855Z,6.22
2019-04-20T16:22:58.754Z,2.52
2019-04-20T16:25:45.780Z,2.75
2019-04-20T16:28:17.266Z,3.45
2019-04-20T16:30:47.571Z,6.75
2019-04-20T16:33:18.613Z,3.55
2019-04-20T16:35:49.933Z,2.47
2019-04-20T16:38:20.486Z,4.00
2019-04-20T16:40:52.528Z,2.90
2019-04-20T16:43:29.377Z,4.42
2019-04-20T16:45:55.051Z,3.30
2019-04-20T16:48:26.364Z,3.58
2019-04-20T16:50:58.577Z,3.15
2019-04-20T16:53:28.826Z,2.12
2019-04-20T16:56:01.157Z,2.35
2019-04-20T16:58:33.478Z,4.03
2019-04-20T17:01:05.517Z,3.90
2019-04-20T17:03:44.397Z,4.10
2019-04-20T17:06:08.346Z,2.50
2019-04-20T17:08:41.073Z,5.85
2019-04-20T17:11:11.682Z,5.90
2019-04-20T17:13:48.042Z,5.20
2019-04-20T17:16:13.589Z,5.25
2019-04-20T17:18:47.646Z,3.72
2019-04-20T17:21:23.174Z,6.60
2019-04-20T17:23:51.207Z,3.58
2019-04-20T17:26:23.167Z,7.20
2019-04-20T17:28:55.467Z,3.45
2019-04-20T17:31:27.299Z,3.17
2019-04-20T17:34:10.612Z,5.90
2019-04-20T17:36:33.649Z,5.50
2019-04-20T17:39:07.830Z,5.78
2019-04-20T17:41:54.576Z,2.90
2019-04-20T17:44:24.688Z,3.87
2019-04-20T17:46:47.624Z,4.37
2019-04-20T17:49:26.950Z,3.83
2019-04-20T17:52:05.109Z,4.40
2019-04-20T17:54:19.838Z,7.35
2019-04-20T17:56:50.187Z,5.67
2019-04-20T17:59:20.290Z,5.95
2019-04-20T18:02:20.419Z,5.50
2019-04-20T18:05:08.208Z,7.12
2019-04-20T18:10:06.761Z,13.35
2019-04-20T18:12:27.027Z,9.10
2019-04-20T18:15:10.128Z,7.90
2019-04-20T18:17:50.321Z,13.22
2019-04-20T18:20:07.660Z,6.72
2019-04-20T18:22:44.050Z,12.60
2019-04-20T18:25:32.499Z,4.37
2019-04-20T18:27:59.619Z,6.50
2019-04-20T18:30:29.830Z,10.18
2019-04-20T18:32:49.305Z,13.40
2019-04-20T18:35:22.402Z,7.03
2019-04-20T18:37:59.384Z,6.12
2019-04-20T18:40:32.567Z,10.50
2019-04-20T18:43:04.631Z,7.80
2019-04-20T18:45:41.073Z,4.40
2019-04-20T18:48:17.282Z,4.33
2019-04-20T18:50:37.980Z,7.75
2019-04-20T18:53:03.446Z,5.80
2019-04-20T18:55:46.283Z,7.92
2019-04-20T18:58:07.026Z,9.35
2019-04-20T19:00:42.796Z,5.90
2019-04-20T19:03:18.164Z,7.10
2019-04-20T19:05:42.033Z,6.90
2019-04-20T19:08:15.336Z,4.78
2019-04-20T19:10:54.142Z,7.08
2019-04-20T19:13:28.687Z,13.20
2019-04-20T19:18:59.497Z,16.85
2019-04-20T19:21:17.263Z,23.30
2019-04-20T19:23:56.217Z,17.87
2019-04-20T19:26:21.528Z,17.27
2019-04-20T19:28:55.865Z,6.47
2019-04-20T19:31:39.258Z,8.90
2019-04-20T19:34:11.557Z,10.25
2019-04-20T19:36:34.890Z,5.83
2019-04-20T19:39:15.242Z,7.72
2019-04-20T19:44:13.492Z,7.55
2019-04-20T19:46:53.768Z,7.70
2019-04-20T19:49:19.765Z,8.98
2019-04-20T19:52:04.215Z,7.58
2019-04-20T19:54:33.101Z,7.05
2019-04-20T19:57:00.476Z,9.18
2019-04-20T19:59:25.124Z,11.33
2019-04-20T20:01:49.733Z,8.68
2019-04-20T20:04:19.867Z,10.75
2019-04-20T20:06:56.523Z,8.33
2019-04-20T20:09:21.898Z,12.03
2019-04-20T20:11:56.158Z,11.50
2019-04-20T20:14:31.996Z,11.95
2019-04-20T20:17:08.871Z,8.65
2019-04-20T20:19:45.942Z,9.93
2019-04-20T20:22:11.691Z,11.88
2019-04-20T20:24:31.369Z,8.95
2019-04-20T20:27:06.251Z,10.85
2019-04-20T20:29:38.456Z,12.35
2019-04-20T20:32:19.143Z,9.83
2019-04-20T20:34:42.225Z,12.73
2019-04-20T20:37:12.991Z,10.15
2019-04-20T20:39:51.261Z,11.35
2019-04-20T20:42:26.070Z,9.53
2019-04-20T20:44:52.426Z,16.17
2019-04-20T20:47:41.169Z,11.22
2019-04-20T20:50:17.377Z,12.85
2019-04-20T20:52:37.878Z,9.15
2019-04-20T20:55:00.662Z,10.08
2019-04-20T20:57:31.166Z,19.67
2019-04-20T21:00:03.666Z,12.45
2019-04-20T21:02:43.518Z,12.78
2019-04-20T21:05:01.849Z,11.53
2019-04-20T21:07:32.254Z,15.85
2019-04-20T21:10:02.343Z,15.75
2019-04-20T21:12:36.440Z,11.25
2019-04-20T21:15:15.120Z,15.10
2019-04-20T21:18:05.499Z,9.13
2019-04-20T21:20:33.216Z,7.55
2019-04-20T21:22:58.372Z,4.75
2019-04-20T21:25:21.139Z,9.15
2019-04-20T21:27:51.345Z,9.05
2019-04-20T21:30:31.030Z,7.80
2019-04-20T21:32:57.325Z,7.47
2019-04-20T21:35:25.936Z,7.15
2019-04-20T21:38:02.467Z,7.53
2019-04-20T21:40:35.317Z,5.03
2019-04-20T21:43:05.056Z,8.43
2019-04-20T21:45:35.732Z,6.30
2019-04-20T21:48:11.485Z,8.78
2019-04-20T21:50:54.589Z,5.78
2019-04-20T21:53:15.479Z,6.03
2019-04-20T21:55:37.797Z,6.17
2019-04-20T21:58:09.108Z,6.35
2019-04-20T22:01:07.010Z,9.15
2019-04-20T22:03:26.817Z,12.07
2019-04-20T22:06:04.780Z,11.57
2019-04-20T22:08:39.449Z,11.63
2019-04-20T22:11:08.033Z,6.45
2019-04-20T22:13:42.103Z,7.58
2019-04-20T22:16:12.551Z,6.20
2019-04-20T22:18:59.291Z,7.95
2019-04-20T22:21:24.855Z,9.45
2019-04-20T22:24:00.565Z,13.22
2019-04-20T22:26:30.035Z,8.38
2019-04-20T22:28:50.005Z,9.70
2019-04-20T22:31:20.391Z,6.58
2019-04-20T22:33:50.664Z,7.58
2019-04-20T22:36:24.833Z,8.33
2019-04-20T22:39:13.241Z,7.53
2019-04-20T22:41:54.689Z,7.78
2019-04-20T22:44:20.932Z,9.35
2019-04-20T22:46:50.082Z,9.23
2019-04-20T22:49:36.326Z,12.82
2019-04-20T22:52:00.697Z,6.47
2019-04-20T22:54:39.706Z,6.40
2019-04-20T22:57:05.951Z,7.30
2019-04-20T22:59:38.386Z,9.05
2019-04-20T23:02:01.193Z,4.92
2019-04-20T23:04:30.889Z,6.03
2019-04-20T23:07:01.213Z,6.92
2019-04-20T23:09:32.823Z,5.17
2019-04-20T23:12:09.198Z,6.87
2019-04-20T23:14:34.547Z,4.72
2019-04-20T23:17:06.222Z,5.10
2019-04-20T23:19:45.709Z,7.05
2019-04-20T23:22:11.689Z,6.08
2019-04-20T23:24:39.842Z,8.13
2019-04-20T23:27:16.616Z,9.83
2019-04-20T23:29:42.158Z,5.90
2019-04-20T23:32:14.549Z,5.92
2019-04-20T23:34:44.850Z,5.60
2019-04-20T23:37:23.407Z,6.03
2019-04-20T23:39:52.594Z,9.28
2019-04-20T23:42:33.614Z,6.53
2019-04-20T23:45:05.593Z,5.40
2019-04-20T23:47:47.897Z,6.58
2019-04-20T23:50:34.218Z,13.50
2019-04-20T23:53:05.502Z,5.62
2019-04-20T23:55:19.082Z,6.20
2019-04-20T23:57:55.909Z,6.97
